sensor_id;sensor_type;location;lat;lon;timestamp;P1;P2;P0
73935;PMS5003;62287;50.858;0.252;2023-05-10T00:00:28;7.0;7.0;
73935;PMS5003;62287;50.858;0.252;2023-05-10T00:00:59;7.0;7.0;
73935;PMS5003;62287;50.858;0.252;2023-05-10T00:01:30;8.0;7.0;
73935;PMS5003;62287;50.858;0.252;2023-05-10T00:02:01;8.0;8.0;
73935;PMS5003;62287;50.858;0.252;2023-05-10T00:02:31;10.0;8.0;
73935;PMS5003;62287;50.858;0.252;2023-05-10T00:03:02;7.0;7.0;
73935;PMS5003;62287;50.858;0.252;2023-05-10T00:03:33;8.0;7.0;
73935;PMS5003;62287;50.858;0.252;2023-05-10T00:04:04;10.0;8.0;
73935;PMS5003;62287;50.858;0.252;2023-05-10T00:04:35;6.0;6.0;
73935;PMS5003;62287;50.858;0.252;2023-05-10T00:05:06;8.0;8.0;
73935;PMS5003;62287;50.858;0.252;2023-05-10T00:05:37;10.0;8.0;
73935;PMS5003;62287;50.858;0.252;2023-05-10T00:06:08;7.0;7.0;
73935;PMS5003;62287;50.858;0.252;2023-05-10T00:06:39;7.0;5.0;
73935;PMS5003;62287;50.858;0.252;2023-05-10T00:07:10;6.0;6.0;
73935;PMS5003;62287;50.858;0.252;2023-05-10T00:07:41;7.0;7.0;
73935;PMS5003;62287;50.858;0.252;2023-05-10T00:08:12;7.0;7.0;
73935;PMS5003;62287;50.858;0.252;2023-05-10T00:08:44;8.0;7.0;
73935;PMS5003;62287;50.858;0.252;2023-05-10T00:09:15;7.0;5.0;
73935;PMS5003;62287;50.858;0.252;2023-05-10T00:09:46;8.0;7.0;
73935;PMS5003;62287;50.858;0.252;2023-05-10T00:10:17;8.0;8.0;
73935;PMS5003;62287;50.858;0.252;2023-05-10T00:10:48;7.0;7.0;
73935;PMS5003;62287;50.858;0.252;2023-05-10T00:11:19;7.0;7.0;
73935;PMS5003;62287;50.858;0.252;2023-05-10T00:11:50;7.0;6.0;
73935;PMS5003;62287;50.858;0.252;2023-05-10T00:12:21;7.0;7.0;
73935;PMS5003;62287;50.858;0.252;2023-05-10T00:12:52;5.0;5.0;
73935;PMS5003;62287;50.858;0.252;2023-05-10T00:13:23;8.0;8.0;
73935;PMS5003;62287;50.858;0.252;2023-05-10T00:13:54;7.0;7.0;
73935;PMS5003;62287;50.858;0.252;2023-05-10T00:14:25;7.0;5.0;
73935;PMS5003;62287;50.858;0.252;2023-05-10T00:14:56;8.0;8.0;
73935;PMS5003;62287;50.858;0.252;2023-05-10T00:15:27;9.0;8.0;
73935;PMS5003;62287;50.858;0.252;2023-05-10T00:15:57;6.0;6.0;
73935;PMS5003;62287;50.858;0.252;2023-05-10T00:16:28;7.0;7.0;
73935;PMS5003;62287;50.858;0.252;2023-05-10T00:16:59;10.0;10.0;
73935;PMS5003;62287;50.858;0.252;2023-05-10T00:17:30;7.0;7.0;
73935;PMS5003;62287;50.858;0.252;2023-05-10T00:18:02;6.0;6.0;
73935;PMS5003;62287;50.858;0.252;2023-05-10T00:18:33;7.0;7.0;
73935;PMS5003;62287;50.858;0.252;2023-05-10T00:19:04;8.0;7.0;
73935;PMS5003;62287;50.858;0.252;2023-05-10T00:19:35;5.0;5.0;
73935;PMS5003;62287;50.858;0.252;2023-05-10T00:20:06;6.0;6.0;
73935;PMS5003;62287;50.858;0.252;2023-05-10T00:20:37;6.0;4.0;
73935;PMS5003;62287;50.858;0.252;2023-05-10T00:21:09;5.0;5.0;
73935;PMS5003;62287;50.858;0.252;2023-05-10T00:21:40;5.0;3.0;
73935;PMS5003;62287;50.858;0.252;2023-05-10T00:22:10;6.0;6.0;
73935;PMS5003;62287;50.858;0.252;2023-05-10T00:22:41;5.0;5.0;
73935;PMS5003;62287;50.858;0.252;2023-05-10T00:23:12;6.0;6.0;
73935;PMS5003;62287;50.858;0.252;2023-05-10T00:23:43;8.0;7.0;
73935;PMS5003;62287;50.858;0.252;2023-05-10T00:24:14;7.0;6.0;
73935;PMS5003;62287;50.858;0.252;2023-05-10T00:24:45;6.0;5.0;
73935;PMS5003;62287;50.858;0.252;2023-05-10T00:25:16;4.0;4.0;
73935;PMS5003;62287;50.858;0.252;2023-05-10T00:25:47;7.0;6.0;
73935;PMS5003;62287;50.858;0.252;2023-05-10T00:26:18;7.0;6.0;
73935;PMS5003;62287;50.858;0.252;2023-05-10T00:26:49;10.0;8.0;
73935;PMS5003;62287;50.858;0.252;2023-05-10T00:27:20;6.0;6.0;
73935;PMS5003;62287;50.858;0.252;2023-05-10T00:27:50;6.0;6.0;
73935;PMS5003;62287;50.858;0.252;2023-05-10T00:28:22;7.0;7.0;
73935;PMS5003;62287;50.858;0.252;2023-05-10T00:28:53;8.0;6.0;
73935;PMS5003;62287;50.858;0.252;2023-05-10T00:29:24;8.0;7.0;
73935;PMS5003;62287;50.858;0.252;2023-05-10T00:29:55;9.0;7.0;
73935;PMS5003;62287;50.858;0.252;2023-05-10T00:30:26;5.0;5.0;
73935;PMS5003;62287;50.858;0.252;2023-05-10T00:30:56;8.0;6.0;
73935;PMS5003;62287;50.858;0.252;2023-05-10T00:31:28;4.0;4.0;
73935;PMS5003;62287;50.858;0.252;2023-05-10T00:31:58;8.0;6.0;
73935;PMS5003;62287;50.858;0.252;2023-05-10T00:32:29;8.0;6.0;
73935;PMS5003;62287;50.858;0.252;2023-05-10T00:33:00;5.0;5.0;
73935;PMS5003;62287;50.858;0.252;2023-05-10T00:33:31;6.0;5.0;
73935;PMS5003;62287;50.858;0.252;2023-05-10T00:34:02;5.0;5.0;
73935;PMS5003;62287;50.858;0.252;2023-05-10T00:34:33;5.0;5.0;
73935;PMS5003;62287;50.858;0.252;2023-05-10T00:35:04;6.0;6.0;
73935;PMS5003;62287;50.858;0.252;2023-05-10T00:35:35;6.0;6.0;
73935;PMS5003;62287;50.858;0.252;2023-05-10T00:36:07;5.0;4.0;
73935;PMS5003;62287;50.858;0.252;2023-05-10T00:36:38;5.0;5.0;
73935;PMS5003;62287;50.858;0.252;2023-05-10T00:37:09;5.0;5.0;
73935;PMS5003;62287;50.858;0.252;2023-05-10T00:37:40;6.0;6.0;
73935;PMS5003;62287;50.858;0.252;2023-05-10T00:38:11;5.0;5.0;
73935;PMS5003;62287;50.858;0.252;2023-05-10T00:38:42;7.0;7.0;
73935;PMS5003;62287;50.858;0.252;2023-05-10T00:39:13;6.0;5.0;
73935;PMS5003;62287;50.858;0.252;2023-05-10T00:39:43;5.0;5.0;
73935;PMS5003;62287;50.858;0.252;2023-05-10T00:40:14;6.0;5.0;
73935;PMS5003;62287;50.858;0.252;2023-05-10T00:40:45;4.0;4.0;
73935;PMS5003;62287;50.858;0.252;2023-05-10T00:41:16;4.0;4.0;
73935;PMS5003;62287;50.858;0.252;2023-05-10T00:41:47;6.0;6.0;
73935;PMS5003;62287;50.858;0.252;2023-05-10T00:42:18;6.0;6.0;
73935;PMS5003;62287;50.858;0.252;2023-05-10T00:42:49;5.0;5.0;
73935;PMS5003;62287;50.858;0.252;2023-05-10T00:43:20;4.0;4.0;
73935;PMS5003;62287;50.858;0.252;2023-05-10T00:43:51;5.0;5.0;
73935;PMS5003;62287;50.858;0.252;2023-05-10T00:44:22;4.0;4.0;
73935;PMS5003;62287;50.858;0.252;2023-05-10T00:44:53;6.0;6.0;
73935;PMS5003;62287;50.858;0.252;2023-05-10T00:45:24;6.0;3.0;
73935;PMS5003;62287;50.858;0.252;2023-05-10T00:45:55;5.0;4.0;
73935;PMS5003;62287;50.858;0.252;2023-05-10T00:46:26;5.0;5.0;
73935;PMS5003;62287;50.858;0.252;2023-05-10T00:46:57;5.0;5.0;
73935;PMS5003;62287;50.858;0.252;2023-05-10T00:47:29;5.0;5.0;
73935;PMS5003;62287;50.858;0.252;2023-05-10T00:48:01;6.0;4.0;
73935;PMS5003;62287;50.858;0.252;2023-05-10T00:48:33;4.0;4.0;
73935;PMS5003;62287;50.858;0.252;2023-05-10T00:49:04;7.0;5.0;
73935;PMS5003;62287;50.858;0.252;2023-05-10T00:49:36;4.0;4.0;
73935;PMS5003;62287;50.858;0.252;2023-05-10T00:50:07;5.0;5.0;
73935;PMS5003;62287;50.858;0.252;2023-05-10T00:50:39;7.0;7.0;
73935;PMS5003;62287;50.858;0.252;2023-05-10T00:51:10;4.0;4.0;
73935;PMS5003;62287;50.858;0.252;2023-05-10T00:51:41;7.0;6.0;
73935;PMS5003;62287;50.858;0.252;2023-05-10T00:52:12;5.0;5.0;
73935;PMS5003;62287;50.858;0.252;2023-05-10T00:52:44;7.0;7.0;
73935;PMS5003;62287;50.858;0.252;2023-05-10T00:53:15;5.0;5.0;
73935;PMS5003;62287;50.858;0.252;2023-05-10T00:53:46;5.0;4.0;
73935;PMS5003;62287;50.858;0.252;2023-05-10T00:54:19;7.0;6.0;
73935;PMS5003;62287;50.858;0.252;2023-05-10T00:54:50;4.0;3.0;
73935;PMS5003;62287;50.858;0.252;2023-05-10T00:55:22;5.0;5.0;
73935;PMS5003;62287;50.858;0.252;2023-05-10T00:55:53;6.0;5.0;
73935;PMS5003;62287;50.858;0.252;2023-05-10T00:56:25;5.0;5.0;
73935;PMS5003;62287;50.858;0.252;2023-05-10T00:56:56;5.0;5.0;
73935;PMS5003;62287;50.858;0.252;2023-05-10T00:57:27;3.0;3.0;
73935;PMS5003;62287;50.858;0.252;2023-05-10T00:57:58;5.0;5.0;
73935;PMS5003;62287;50.858;0.252;2023-05-10T00:58:29;5.0;5.0;
73935;PMS5003;62287;50.858;0.252;2023-05-10T00:59:00;4.0;4.0;
73935;PMS5003;62287;50.858;0.252;2023-05-10T00:59:31;7.0;4.0;
73935;PMS5003;62287;50.858;0.252;2023-05-10T01:00:03;4.0;4.0;
73935;PMS5003;62287;50.858;0.252;2023-05-10T01:00:34;5.0;5.0;
73935;PMS5003;62287;50.858;0.252;2023-05-10T01:01:06;4.0;4.0;
73935;PMS5003;62287;50.858;0.252;2023-05-10T01:01:38;3.0;3.0;
73935;PMS5003;62287;50.858;0.252;2023-05-10T01:02:09;4.0;4.0;
73935;PMS5003;62287;50.858;0.252;2023-05-10T01:02:40;3.0;3.0;
73935;PMS5003;62287;50.858;0.252;2023-05-10T01:03:12;5.0;5.0;
73935;PMS5003;62287;50.858;0.252;2023-05-10T01:03:43;4.0;4.0;
73935;PMS5003;62287;50.858;0.252;2023-05-10T01:04:14;4.0;4.0;
73935;PMS5003;62287;50.858;0.252;2023-05-10T01:04:45;4.0;4.0;
73935;PMS5003;62287;50.858;0.252;2023-05-10T01:05:16;4.0;4.0;
73935;PMS5003;62287;50.858;0.252;2023-05-10T01:05:47;3.0;3.0;
73935;PMS5003;62287;50.858;0.252;2023-05-10T01:06:19;3.0;3.0;
73935;PMS5003;62287;50.858;0.252;2023-05-10T01:06:49;3.0;3.0;
73935;PMS5003;62287;50.858;0.252;2023-05-10T01:07:20;4.0;4.0;
73935;PMS5003;62287;50.858;0.252;2023-05-10T01:07:51;3.0;3.0;
73935;PMS5003;62287;50.858;0.252;2023-05-10T01:08:22;4.0;4.0;
73935;PMS5003;62287;50.858;0.252;2023-05-10T01:08:53;4.0;4.0;
73935;PMS5003;62287;50.858;0.252;2023-05-10T01:09:25;3.0;3.0;
73935;PMS5003;62287;50.858;0.252;2023-05-10T01:09:56;2.0;2.0;
73935;PMS5003;62287;50.858;0.252;2023-05-10T01:10:27;3.0;3.0;
73935;PMS5003;62287;50.858;0.252;2023-05-10T01:10:58;3.0;3.0;
73935;PMS5003;62287;50.858;0.252;2023-05-10T01:11:29;5.0;4.0;
73935;PMS5003;62287;50.858;0.252;2023-05-10T01:12:00;3.0;3.0;
73935;PMS5003;62287;50.858;0.252;2023-05-10T01:12:32;5.0;5.0;
73935;PMS5003;62287;50.858;0.252;2023-05-10T01:13:04;3.0;3.0;
73935;PMS5003;62287;50.858;0.252;2023-05-10T01:13:36;3.0;3.0;
73935;PMS5003;62287;50.858;0.252;2023-05-10T01:14:09;4.0;4.0;
73935;PMS5003;62287;50.858;0.252;2023-05-10T01:14:40;4.0;4.0;
73935;PMS5003;62287;50.858;0.252;2023-05-10T01:15:11;5.0;4.0;
73935;PMS5003;62287;50.858;0.252;2023-05-10T01:15:44;3.0;3.0;
73935;PMS5003;62287;50.858;0.252;2023-05-10T01:16:16;4.0;4.0;
73935;PMS5003;62287;50.858;0.252;2023-05-10T01:16:48;6.0;6.0;
73935;PMS5003;62287;50.858;0.252;2023-05-10T01:17:20;4.0;3.0;
73935;PMS5003;62287;50.858;0.252;2023-05-10T01:17:52;4.0;4.0;
73935;PMS5003;62287;50.858;0.252;2023-05-10T01:18:23;5.0;4.0;
73935;PMS5003;62287;50.858;0.252;2023-05-10T01:18:55;4.0;4.0;
73935;PMS5003;62287;50.858;0.252;2023-05-10T01:19:26;3.0;3.0;
73935;PMS5003;62287;50.858;0.252;2023-05-10T01:19:59;6.0;6.0;
73935;PMS5003;62287;50.858;0.252;2023-05-10T01:20:32;4.0;4.0;
73935;PMS5003;62287;50.858;0.252;2023-05-10T01:21:14;3.0;3.0;
73935;PMS5003;62287;50.858;0.252;2023-05-10T01:21:51;6.0;5.0;
73935;PMS5003;62287;50.858;0.252;2023-05-10T01:22:36;2.0;2.0;
73935;PMS5003;62287;50.858;0.252;2023-05-10T01:23:26;5.0;3.0;
73935;PMS5003;62287;50.858;0.252;2023-05-10T01:25:04;2.0;2.0;
73935;PMS5003;62287;50.858;0.252;2023-05-10T01:25:57;4.0;4.0;
73935;PMS5003;62287;50.858;0.252;2023-05-10T01:26:50;3.0;3.0;
73935;PMS5003;62287;50.858;0.252;2023-05-10T01:27:54;4.0;4.0;
73935;PMS5003;62287;50.858;0.252;2023-05-10T01:29:19;3.0;3.0;
73935;PMS5003;62287;50.858;0.252;2023-05-10T01:30:17;4.0;4.0;
73935;PMS5003;62287;50.858;0.252;2023-05-10T01:31:40;3.0;3.0;
73935;PMS5003;62287;50.858;0.252;2023-05-10T01:32:35;5.0;3.0;
73935;PMS5003;62287;50.858;0.252;2023-05-10T01:33:11;3.0;3.0;
73935;PMS5003;62287;50.858;0.252;2023-05-10T01:33:47;3.0;3.0;
73935;PMS5003;62287;50.858;0.252;2023-05-10T01:34:23;2.0;2.0;
73935;PMS5003;62287;50.858;0.252;2023-05-10T01:35:00;4.0;4.0;
73935;PMS5003;62287;50.858;0.252;2023-05-10T01:35:37;5.0;4.0;
73935;PMS5003;62287;50.858;0.252;2023-05-10T01:36:14;4.0;4.0;
73935;PMS5003;62287;50.858;0.252;2023-05-10T01:36:51;4.0;4.0;
73935;PMS5003;62287;50.858;0.252;2023-05-10T01:37:28;4.0;4.0;
73935;PMS5003;62287;50.858;0.252;2023-05-10T01:38:04;4.0;4.0;
73935;PMS5003;62287;50.858;0.252;2023-05-10T01:38:41;2.0;2.0;
73935;PMS5003;62287;50.858;0.252;2023-05-10T01:39:19;3.0;3.0;
73935;PMS5003;62287;50.858;0.252;2023-05-10T01:39:58;4.0;3.0;
73935;PMS5003;62287;50.858;0.252;2023-05-10T01:40:35;0.0;0.0;
73935;PMS5003;62287;50.858;0.252;2023-05-10T01:41:13;4.0;3.0;
73935;PMS5003;62287;50.858;0.252;2023-05-10T01:41:48;3.0;3.0;
73935;PMS5003;62287;50.858;0.252;2023-05-10T01:42:23;3.0;3.0;
73935;PMS5003;62287;50.858;0.252;2023-05-10T01:42:59;3.0;3.0;
73935;PMS5003;62287;50.858;0.252;2023-05-10T01:43:36;2.0;2.0;
73935;PMS5003;62287;50.858;0.252;2023-05-10T01:44:16;3.0;3.0;
73935;PMS5003;62287;50.858;0.252;2023-05-10T01:44:53;4.0;4.0;
73935;PMS5003;62287;50.858;0.252;2023-05-10T01:45:32;3.0;3.0;
73935;PMS5003;62287;50.858;0.252;2023-05-10T01:46:09;3.0;3.0;
73935;PMS5003;62287;50.858;0.252;2023-05-10T01:46:45;4.0;4.0;
73935;PMS5003;62287;50.858;0.252;2023-05-10T01:47:24;3.0;3.0;
73935;PMS5003;62287;50.858;0.252;2023-05-10T01:48:05;5.0;5.0;
73935;PMS5003;62287;50.858;0.252;2023-05-10T01:48:37;3.0;3.0;
73935;PMS5003;62287;50.858;0.252;2023-05-10T01:49:13;4.0;4.0;
73935;PMS5003;62287;50.858;0.252;2023-05-10T01:49:52;3.0;3.0;
73935;PMS5003;62287;50.858;0.252;2023-05-10T01:50:27;3.0;3.0;
73935;PMS5003;62287;50.858;0.252;2023-05-10T01:51:00;2.0;2.0;
73935;PMS5003;62287;50.858;0.252;2023-05-10T01:51:38;2.0;2.0;
73935;PMS5003;62287;50.858;0.252;2023-05-10T01:52:12;3.0;3.0;
73935;PMS5003;62287;50.858;0.252;2023-05-10T01:52:53;3.0;3.0;
73935;PMS5003;62287;50.858;0.252;2023-05-10T01:53:26;5.0;4.0;
73935;PMS5003;62287;50.858;0.252;2023-05-10T01:54:01;2.0;2.0;
73935;PMS5003;62287;50.858;0.252;2023-05-10T01:54:34;4.0;4.0;
73935;PMS5003;62287;50.858;0.252;2023-05-10T01:55:09;4.0;3.0;
73935;PMS5003;62287;50.858;0.252;2023-05-10T01:55:46;3.0;3.0;
73935;PMS5003;62287;50.858;0.252;2023-05-10T01:56:19;4.0;2.0;
73935;PMS5003;62287;50.858;0.252;2023-05-10T01:56:57;2.0;2.0;
73935;PMS5003;62287;50.858;0.252;2023-05-10T01:57:31;2.0;2.0;
73935;PMS5003;62287;50.858;0.252;2023-05-10T01:58:05;2.0;2.0;
73935;PMS5003;62287;50.858;0.252;2023-05-10T01:58:39;4.0;4.0;
73935;PMS5003;62287;50.858;0.252;2023-05-10T01:59:15;3.0;3.0;
73935;PMS5003;62287;50.858;0.252;2023-05-10T01:59:49;3.0;3.0;
73935;PMS5003;62287;50.858;0.252;2023-05-10T02:00:21;4.0;4.0;
73935;PMS5003;62287;50.858;0.252;2023-05-10T02:00:53;3.0;3.0;
73935;PMS5003;62287;50.858;0.252;2023-05-10T02:01:25;3.0;3.0;
73935;PMS5003;62287;50.858;0.252;2023-05-10T02:01:57;3.0;2.0;
73935;PMS5003;62287;50.858;0.252;2023-05-10T02:02:30;4.0;4.0;
73935;PMS5003;62287;50.858;0.252;2023-05-10T02:03:07;8.0;5.0;
73935;PMS5003;62287;50.858;0.252;2023-05-10T02:03:40;2.0;2.0;
73935;PMS5003;62287;50.858;0.252;2023-05-10T02:04:14;2.0;2.0;
73935;PMS5003;62287;50.858;0.252;2023-05-10T02:04:47;3.0;3.0;
73935;PMS5003;62287;50.858;0.252;2023-05-10T02:05:21;2.0;2.0;
73935;PMS5003;62287;50.858;0.252;2023-05-10T02:05:53;3.0;3.0;
73935;PMS5003;62287;50.858;0.252;2023-05-10T02:06:26;5.0;4.0;
73935;PMS5003;62287;50.858;0.252;2023-05-10T02:06:57;3.0;3.0;
73935;PMS5003;62287;50.858;0.252;2023-05-10T02:07:29;4.0;2.0;
73935;PMS5003;62287;50.858;0.252;2023-05-10T02:08:01;3.0;3.0;
73935;PMS5003;62287;50.858;0.252;2023-05-10T02:08:35;1.0;1.0;
73935;PMS5003;62287;50.858;0.252;2023-05-10T02:09:07;2.0;2.0;
73935;PMS5003;62287;50.858;0.252;2023-05-10T02:09:40;2.0;1.0;
73935;PMS5003;62287;50.858;0.252;2023-05-10T02:10:14;3.0;3.0;
73935;PMS5003;62287;50.858;0.252;2023-05-10T02:10:47;3.0;3.0;
73935;PMS5003;62287;50.858;0.252;2023-05-10T02:11:20;3.0;3.0;
73935;PMS5003;62287;50.858;0.252;2023-05-10T02:11:53;2.0;2.0;
73935;PMS5003;62287;50.858;0.252;2023-05-10T02:12:25;2.0;2.0;
73935;PMS5003;62287;50.858;0.252;2023-05-10T02:12:58;2.0;2.0;
73935;PMS5003;62287;50.858;0.252;2023-05-10T02:13:31;2.0;2.0;
73935;PMS5003;62287;50.858;0.252;2023-05-10T02:14:05;3.0;3.0;
73935;PMS5003;62287;50.858;0.252;2023-05-10T02:14:39;3.0;3.0;
73935;PMS5003;62287;50.858;0.252;2023-05-10T02:15:12;2.0;2.0;
73935;PMS5003;62287;50.858;0.252;2023-05-10T02:15:48;1.0;1.0;
73935;PMS5003;62287;50.858;0.252;2023-05-10T02:16:20;3.0;3.0;
73935;PMS5003;62287;50.858;0.252;2023-05-10T02:16:56;2.0;2.0;
73935;PMS5003;62287;50.858;0.252;2023-05-10T02:17:28;3.0;3.0;
73935;PMS5003;62287;50.858;0.252;2023-05-10T02:18:02;2.0;2.0;
73935;PMS5003;62287;50.858;0.252;2023-05-10T02:18:34;2.0;2.0;
73935;PMS5003;62287;50.858;0.252;2023-05-10T02:19:06;2.0;2.0;
73935;PMS5003;62287;50.858;0.252;2023-05-10T02:19:40;2.0;2.0;
73935;PMS5003;62287;50.858;0.252;2023-05-10T02:20:13;2.0;2.0;
73935;PMS5003;62287;50.858;0.252;2023-05-10T02:20:46;2.0;2.0;
73935;PMS5003;62287;50.858;0.252;2023-05-10T02:21:18;3.0;3.0;
73935;PMS5003;62287;50.858;0.252;2023-05-10T02:21:50;2.0;2.0;
73935;PMS5003;62287;50.858;0.252;2023-05-10T02:22:22;3.0;3.0;
73935;PMS5003;62287;50.858;0.252;2023-05-10T02:22:55;3.0;3.0;
73935;PMS5003;62287;50.858;0.252;2023-05-10T02:23:27;3.0;3.0;
73935;PMS5003;62287;50.858;0.252;2023-05-10T02:24:00;2.0;2.0;
73935;PMS5003;62287;50.858;0.252;2023-05-10T02:24:34;2.0;2.0;
73935;PMS5003;62287;50.858;0.252;2023-05-10T02:25:07;2.0;2.0;
73935;PMS5003;62287;50.858;0.252;2023-05-10T02:25:40;2.0;2.0;
73935;PMS5003;62287;50.858;0.252;2023-05-10T02:26:13;3.0;3.0;
73935;PMS5003;62287;50.858;0.252;2023-05-10T02:26:45;4.0;4.0;
73935;PMS5003;62287;50.858;0.252;2023-05-10T02:27:20;2.0;2.0;
73935;PMS5003;62287;50.858;0.252;2023-05-10T02:27:53;1.0;1.0;
73935;PMS5003;62287;50.858;0.252;2023-05-10T02:28:26;3.0;3.0;
73935;PMS5003;62287;50.858;0.252;2023-05-10T02:28:58;4.0;2.0;
73935;PMS5003;62287;50.858;0.252;2023-05-10T02:29:31;2.0;2.0;
73935;PMS5003;62287;50.858;0.252;2023-05-10T02:30:05;2.0;2.0;
73935;PMS5003;62287;50.858;0.252;2023-05-10T02:30:37;4.0;3.0;
73935;PMS5003;62287;50.858;0.252;2023-05-10T02:31:09;3.0;3.0;
73935;PMS5003;62287;50.858;0.252;2023-05-10T02:31:40;2.0;2.0;
73935;PMS5003;62287;50.858;0.252;2023-05-10T02:32:12;3.0;3.0;
73935;PMS5003;62287;50.858;0.252;2023-05-10T02:32:43;5.0;4.0;
73935;PMS5003;62287;50.858;0.252;2023-05-10T02:33:15;2.0;2.0;
73935;PMS5003;62287;50.858;0.252;2023-05-10T02:33:47;1.0;1.0;
73935;PMS5003;62287;50.858;0.252;2023-05-10T02:34:19;3.0;3.0;
73935;PMS5003;62287;50.858;0.252;2023-05-10T02:34:51;3.0;3.0;
73935;PMS5003;62287;50.858;0.252;2023-05-10T02:35:24;3.0;3.0;
73935;PMS5003;62287;50.858;0.252;2023-05-10T02:35:56;2.0;2.0;
73935;PMS5003;62287;50.858;0.252;2023-05-10T02:36:28;2.0;2.0;
73935;PMS5003;62287;50.858;0.252;2023-05-10T02:37:00;1.0;1.0;
73935;PMS5003;62287;50.858;0.252;2023-05-10T02:37:33;3.0;2.0;
73935;PMS5003;62287;50.858;0.252;2023-05-10T02:38:06;1.0;1.0;
73935;PMS5003;62287;50.858;0.252;2023-05-10T02:38:38;2.0;2.0;
73935;PMS5003;62287;50.858;0.252;2023-05-10T02:39:10;3.0;3.0;
73935;PMS5003;62287;50.858;0.252;2023-05-10T02:39:42;2.0;2.0;
73935;PMS5003;62287;50.858;0.252;2023-05-10T02:40:14;3.0;3.0;
73935;PMS5003;62287;50.858;0.252;2023-05-10T02:40:46;2.0;2.0;
73935;PMS5003;62287;50.858;0.252;2023-05-10T02:41:18;3.0;3.0;
73935;PMS5003;62287;50.858;0.252;2023-05-10T02:41:50;2.0;2.0;
73935;PMS5003;62287;50.858;0.252;2023-05-10T02:42:24;3.0;3.0;
73935;PMS5003;62287;50.858;0.252;2023-05-10T02:42:57;3.0;2.0;
73935;PMS5003;62287;50.858;0.252;2023-05-10T02:43:31;3.0;3.0;
73935;PMS5003;62287;50.858;0.252;2023-05-10T02:44:03;3.0;2.0;
73935;PMS5003;62287;50.858;0.252;2023-05-10T02:44:38;2.0;2.0;
73935;PMS5003;62287;50.858;0.252;2023-05-10T02:45:12;1.0;1.0;
73935;PMS5003;62287;50.858;0.252;2023-05-10T02:45:46;1.0;1.0;
73935;PMS5003;62287;50.858;0.252;2023-05-10T02:46:18;2.0;2.0;
73935;PMS5003;62287;50.858;0.252;2023-05-10T02:46:49;3.0;3.0;
73935;PMS5003;62287;50.858;0.252;2023-05-10T02:47:20;2.0;2.0;
73935;PMS5003;62287;50.858;0.252;2023-05-10T02:47:51;3.0;3.0;
73935;PMS5003;62287;50.858;0.252;2023-05-10T02:48:22;3.0;3.0;
73935;PMS5003;62287;50.858;0.252;2023-05-10T02:48:53;2.0;2.0;
73935;PMS5003;62287;50.858;0.252;2023-05-10T02:49:25;2.0;2.0;
73935;PMS5003;62287;50.858;0.252;2023-05-10T02:49:56;2.0;2.0;
73935;PMS5003;62287;50.858;0.252;2023-05-10T02:50:27;2.0;2.0;
73935;PMS5003;62287;50.858;0.252;2023-05-10T02:51:01;3.0;3.0;
73935;PMS5003;62287;50.858;0.252;2023-05-10T02:51:36;2.0;2.0;
73935;PMS5003;62287;50.858;0.252;2023-05-10T02:52:11;2.0;2.0;
73935;PMS5003;62287;50.858;0.252;2023-05-10T02:52:50;2.0;2.0;
73935;PMS5003;62287;50.858;0.252;2023-05-10T02:53:22;2.0;2.0;
73935;PMS5003;62287;50.858;0.252;2023-05-10T02:54:01;3.0;3.0;
73935;PMS5003;62287;50.858;0.252;2023-05-10T02:54:39;3.0;3.0;
73935;PMS5003;62287;50.858;0.252;2023-05-10T02:55:15;4.0;3.0;
73935;PMS5003;62287;50.858;0.252;2023-05-10T02:55:50;4.0;4.0;
73935;PMS5003;62287;50.858;0.252;2023-05-10T02:56:24;4.0;3.0;
73935;PMS5003;62287;50.858;0.252;2023-05-10T02:57:00;3.0;2.0;
73935;PMS5003;62287;50.858;0.252;2023-05-10T02:57:34;4.0;4.0;
73935;PMS5003;62287;50.858;0.252;2023-05-10T02:58:08;3.0;1.0;
73935;PMS5003;62287;50.858;0.252;2023-05-10T02:58:39;2.0;2.0;
73935;PMS5003;62287;50.858;0.252;2023-05-10T02:59:10;3.0;3.0;
73935;PMS5003;62287;50.858;0.252;2023-05-10T02:59:41;2.0;2.0;
73935;PMS5003;62287;50.858;0.252;2023-05-10T03:00:12;3.0;3.0;
73935;PMS5003;62287;50.858;0.252;2023-05-10T03:00:43;4.0;4.0;
73935;PMS5003;62287;50.858;0.252;2023-05-10T03:01:14;3.0;3.0;
73935;PMS5003;62287;50.858;0.252;2023-05-10T03:01:45;4.0;3.0;
73935;PMS5003;62287;50.858;0.252;2023-05-10T03:02:16;2.0;2.0;
73935;PMS5003;62287;50.858;0.252;2023-05-10T03:02:47;2.0;2.0;
73935;PMS5003;62287;50.858;0.252;2023-05-10T03:03:19;4.0;4.0;
73935;PMS5003;62287;50.858;0.252;2023-05-10T03:03:50;3.0;3.0;
73935;PMS5003;62287;50.858;0.252;2023-05-10T03:04:21;3.0;3.0;
73935;PMS5003;62287;50.858;0.252;2023-05-10T03:04:52;2.0;2.0;
73935;PMS5003;62287;50.858;0.252;2023-05-10T03:05:23;1.0;1.0;
73935;PMS5003;62287;50.858;0.252;2023-05-10T03:05:54;1.0;1.0;
73935;PMS5003;62287;50.858;0.252;2023-05-10T03:06:25;2.0;2.0;
73935;PMS5003;62287;50.858;0.252;2023-05-10T03:06:56;2.0;2.0;
73935;PMS5003;62287;50.858;0.252;2023-05-10T03:07:27;4.0;3.0;
73935;PMS5003;62287;50.858;0.252;2023-05-10T03:07:58;2.0;2.0;
73935;PMS5003;62287;50.858;0.252;2023-05-10T03:08:30;3.0;3.0;
73935;PMS5003;62287;50.858;0.252;2023-05-10T03:09:01;4.0;4.0;
73935;PMS5003;62287;50.858;0.252;2023-05-10T03:09:32;3.0;3.0;
73935;PMS5003;62287;50.858;0.252;2023-05-10T03:10:04;4.0;4.0;
73935;PMS5003;62287;50.858;0.252;2023-05-10T03:10:38;2.0;2.0;
73935;PMS5003;62287;50.858;0.252;2023-05-10T03:11:23;3.0;3.0;
73935;PMS5003;62287;50.858;0.252;2023-05-10T03:12:07;2.0;2.0;
73935;PMS5003;62287;50.858;0.252;2023-05-10T03:12:47;3.0;3.0;
73935;PMS5003;62287;50.858;0.252;2023-05-10T03:13:28;3.0;3.0;
73935;PMS5003;62287;50.858;0.252;2023-05-10T03:14:06;3.0;3.0;
73935;PMS5003;62287;50.858;0.252;2023-05-10T03:14:47;2.0;2.0;
73935;PMS5003;62287;50.858;0.252;2023-05-10T03:15:27;3.0;3.0;
73935;PMS5003;62287;50.858;0.252;2023-05-10T03:16:08;6.0;4.0;
73935;PMS5003;62287;50.858;0.252;2023-05-10T03:16:45;3.0;3.0;
73935;PMS5003;62287;50.858;0.252;2023-05-10T03:17:23;3.0;3.0;
73935;PMS5003;62287;50.858;0.252;2023-05-10T03:18:02;3.0;3.0;
73935;PMS5003;62287;50.858;0.252;2023-05-10T03:18:40;3.0;3.0;
73935;PMS5003;62287;50.858;0.252;2023-05-10T03:19:16;3.0;3.0;
73935;PMS5003;62287;50.858;0.252;2023-05-10T03:20:03;2.0;2.0;
73935;PMS5003;62287;50.858;0.252;2023-05-10T03:20:41;2.0;2.0;
73935;PMS5003;62287;50.858;0.252;2023-05-10T03:21:13;2.0;2.0;
73935;PMS5003;62287;50.858;0.252;2023-05-10T03:21:49;2.0;2.0;
73935;PMS5003;62287;50.858;0.252;2023-05-10T03:22:24;4.0;3.0;
73935;PMS5003;62287;50.858;0.252;2023-05-10T03:23:00;4.0;2.0;
73935;PMS5003;62287;50.858;0.252;2023-05-10T03:23:38;3.0;3.0;
73935;PMS5003;62287;50.858;0.252;2023-05-10T03:24:12;1.0;1.0;
73935;PMS5003;62287;50.858;0.252;2023-05-10T03:24:44;4.0;4.0;
73935;PMS5003;62287;50.858;0.252;2023-05-10T03:25:17;3.0;3.0;
73935;PMS5003;62287;50.858;0.252;2023-05-10T03:25:51;3.0;3.0;
73935;PMS5003;62287;50.858;0.252;2023-05-10T03:26:24;3.0;3.0;
73935;PMS5003;62287;50.858;0.252;2023-05-10T03:26:57;2.0;2.0;
73935;PMS5003;62287;50.858;0.252;2023-05-10T03:27:30;4.0;4.0;
73935;PMS5003;62287;50.858;0.252;2023-05-10T03:28:02;3.0;3.0;
73935;PMS5003;62287;50.858;0.252;2023-05-10T03:28:35;3.0;2.0;
73935;PMS5003;62287;50.858;0.252;2023-05-10T03:29:07;3.0;3.0;
73935;PMS5003;62287;50.858;0.252;2023-05-10T03:29:40;4.0;4.0;
73935;PMS5003;62287;50.858;0.252;2023-05-10T03:30:13;2.0;2.0;
73935;PMS5003;62287;50.858;0.252;2023-05-10T03:30:45;2.0;2.0;
73935;PMS5003;62287;50.858;0.252;2023-05-10T03:31:17;2.0;2.0;
73935;PMS5003;62287;50.858;0.252;2023-05-10T03:31:48;2.0;2.0;
73935;PMS5003;62287;50.858;0.252;2023-05-10T03:32:20;4.0;3.0;
73935;PMS5003;62287;50.858;0.252;2023-05-10T03:32:51;4.0;4.0;
73935;PMS5003;62287;50.858;0.252;2023-05-10T03:33:22;3.0;3.0;
73935;PMS5003;62287;50.858;0.252;2023-05-10T03:33:53;5.0;3.0;
73935;PMS5003;62287;50.858;0.252;2023-05-10T03:34:24;2.0;2.0;
73935;PMS5003;62287;50.858;0.252;2023-05-10T03:34:55;2.0;2.0;
73935;PMS5003;62287;50.858;0.252;2023-05-10T03:35:25;5.0;5.0;
73935;PMS5003;62287;50.858;0.252;2023-05-10T03:35:56;3.0;3.0;
73935;PMS5003;62287;50.858;0.252;2023-05-10T03:36:27;3.0;3.0;